sensor_id;sensor_type;location;lat;lon;timestamp;temperature;humidity
21489;DHT22;10906;45.194;5.684;2022-07-29T05:00:37;22.20;64.80
21489;DHT22;10906;45.194;5.684;2022-07-29T05:03:21;22.20;64.80
21489;DHT22;10906;45.194;5.684;2022-07-29T05:06:05;22.20;64.80
21489;DHT22;10906;45.194;5.684;2022-07-29T05:08:50;22.20;65.50
21489;DHT22;10906;45.194;5.684;2022-07-29T05:11:34;22.30;65.20
21489;DHT22;10906;45.194;5.684;2022-07-29T05:14:18;22.40;65.60
21489;DHT22;10906;45.194;5.684;2022-07-29T05:17:02;22.40;65.90
21489;DHT22;10906;45.194;5.684;2022-07-29T05:19:47;22.40;66.10
21489;DHT22;10906;45.194;5.684;2022-07-29T05:22:31;22.40;65.40
21489;DHT22;10906;45.194;5.684;2022-07-29T05:25:15;22.40;65.90
21489;DHT22;10906;45.194;5.684;2022-07-29T05:27:59;22.50;65.50
21489;DHT22;10906;45.194;5.684;2022-07-29T05:30:43;22.50;66.10
21489;DHT22;10906;45.194;5.684;2022-07-29T05:33:28;22.60;66.40
21489;DHT22;10906;45.194;5.684;2022-07-29T05:36:13;22.70;66.30
21489;DHT22;10906;45.194;5.684;2022-07-29T05:38:57;22.70;66.20
21489;DHT22;10906;45.194;5.684;2022-07-29T05:41:41;22.70;65.40
21489;DHT22;10906;45.194;5.684;2022-07-29T05:44:26;22.70;66.40
21489;DHT22;10906;45.194;5.684;2022-07-29T05:47:10;22.80;66.50
21489;DHT22;10906;45.194;5.684;2022-07-29T05:49:54;22.80;65.70
21489;DHT22;10906;45.194;5.684;2022-07-29T05:52:38;22.90;65.40
21489;DHT22;10906;45.194;5.684;2022-07-29T05:55:23;22.90;65.60
21489;DHT22;10906;45.194;5.684;2022-07-29T05:58:07;22.90;66.40
21489;DHT22;10906;45.194;5.684;2022-07-29T06:00:51;23.00;65.30
21489;DHT22;10906;45.194;5.684;2022-07-29T06:03:36;23.00;65.40
21489;DHT22;10906;45.194;5.684;2022-07-29T06:06:21;23.00;65.10
21489;DHT22;10906;45.194;5.684;2022-07-29T06:09:06;23.10;64.80
21489;DHT22;10906;45.194;5.684;2022-07-29T06:11:52;23.10;65.50
21489;DHT22;10906;45.194;5.684;2022-07-29T06:14:36;23.10;66.00
21489;DHT22;10906;45.194;5.684;2022-07-29T06:17:21;23.10;66.10
21489;DHT22;10906;45.194;5.684;2022-07-29T06:20:06;23.20;65.90
21489;DHT22;10906;45.194;5.684;2022-07-29T06:22:50;23.20;65.00
21489;DHT22;10906;45.194;5.684;2022-07-29T06:25:35;23.30;65.90
21489;DHT22;10906;45.194;5.684;2022-07-29T06:28:20;23.30;64.90
21489;DHT22;10906;45.194;5.684;2022-07-29T06:31:05;23.40;64.90
21489;DHT22;10906;45.194;5.684;2022-07-29T06:33:50;23.40;64.70
21489;DHT22;10906;45.194;5.684;2022-07-29T06:36:35;23.50;65.00
21489;DHT22;10906;45.194;5.684;2022-07-29T06:39:20;23.60;66.20
21489;DHT22;10906;45.194;5.684;2022-07-29T06:42:05;23.60;64.20
21489;DHT22;10906;45.194;5.684;2022-07-29T06:44:49;23.60;63.70
21489;DHT22;10906;45.194;5.684;2022-07-29T06:47:34;23.70;63.60
21489;DHT22;10906;45.194;5.684;2022-07-29T06:50:18;23.90;63.70
21489;DHT22;10906;45.194;5.684;2022-07-29T06:53:03;24.00;63.20
21489;DHT22;10906;45.194;5.684;2022-07-29T06:55:47;24.00;63.00
21489;DHT22;10906;45.194;5.684;2022-07-29T06:58:32;24.00;63.20
21489;DHT22;10906;45.194;5.684;2022-07-29T07:01:16;24.00;62.80
21489;DHT22;10906;45.194;5.684;2022-07-29T07:04:01;24.10;62.40
21489;DHT22;10906;45.194;5.684;2022-07-29T07:06:45;24.20;62.20
21489;DHT22;10906;45.194;5.684;2022-07-29T07:09:29;24.20;62.20
21489;DHT22;10906;45.194;5.684;2022-07-29T07:12:13;24.20;62.00
21489;DHT22;10906;45.194;5.684;2022-07-29T07:14:58;24.20;62.70
21489;DHT22;10906;45.194;5.684;2022-07-29T07:17:43;24.30;62.10
21489;DHT22;10906;45.194;5.684;2022-07-29T07:20:27;24.30;62.00
21489;DHT22;10906;45.194;5.684;2022-07-29T07:23:12;24.40;61.90
21489;DHT22;10906;45.194;5.684;2022-07-29T07:25:56;24.40;62.10
21489;DHT22;10906;45.194;5.684;2022-07-29T07:28:41;24.40;62.50
21489;DHT22;10906;45.194;5.684;2022-07-29T07:31:26;24.50;62.10
21489;DHT22;10906;45.194;5.684;2022-07-29T07:34:10;24.50;61.50
21489;DHT22;10906;45.194;5.684;2022-07-29T07:36:55;24.40;62.20
21489;DHT22;10906;45.194;5.684;2022-07-29T07:39:39;24.40;61.90
21489;DHT22;10906;45.194;5.684;2022-07-29T07:42:23;24.40;62.40
21489;DHT22;10906;45.194;5.684;2022-07-29T07:45:08;24.40;62.10
21489;DHT22;10906;45.194;5.684;2022-07-29T07:47:53;24.30;61.70
21489;DHT22;10906;45.194;5.684;2022-07-29T07:50:37;24.30;62.60
21489;DHT22;10906;45.194;5.684;2022-07-29T07:53:21;24.30;61.60
21489;DHT22;10906;45.194;5.684;2022-07-29T07:56:06;24.30;63.20
21489;DHT22;10906;45.194;5.684;2022-07-29T07:58:51;24.30;62.70
21489;DHT22;10906;45.194;5.684;2022-07-29T08:01:35;24.40;62.10
21489;DHT22;10906;45.194;5.684;2022-07-29T08:04:19;24.40;61.90
21489;DHT22;10906;45.194;5.684;2022-07-29T08:07:03;24.50;62.00
21489;DHT22;10906;45.194;5.684;2022-07-29T08:09:48;24.60;62.00
21489;DHT22;10906;45.194;5.684;2022-07-29T08:12:32;24.60;62.60
21489;DHT22;10906;45.194;5.684;2022-07-29T08:15:16;24.70;62.50
21489;DHT22;10906;45.194;5.684;2022-07-29T08:18:00;24.90;61.80
21489;DHT22;10906;45.194;5.684;2022-07-29T08:20:45;25.00;61.40
21489;DHT22;10906;45.194;5.684;2022-07-29T08:23:29;25.10;61.10
21489;DHT22;10906;45.194;5.684;2022-07-29T08:26:22;25.00;60.10
21489;DHT22;10906;45.194;5.684;2022-07-29T08:29:07;24.90;59.90
21489;DHT22;10906;45.194;5.684;2022-07-29T08:31:52;24.80;59.80
21489;DHT22;10906;45.194;5.684;2022-07-29T08:34:36;24.60;60.40
21489;DHT22;10906;45.194;5.684;2022-07-29T08:37:20;24.50;61.20
21489;DHT22;10906;45.194;5.684;2022-07-29T08:40:05;24.40;61.30
21489;DHT22;10906;45.194;5.684;2022-07-29T08:42:50;24.30;60.90
21489;DHT22;10906;45.194;5.684;2022-07-29T08:45:46;24.30;61.30
21489;DHT22;10906;45.194;5.684;2022-07-29T08:48:31;24.20;65.10
21489;DHT22;10906;45.194;5.684;2022-07-29T08:51:19;23.80;67.20
21489;DHT22;10906;45.194;5.684;2022-07-29T08:54:04;23.40;73.30
21489;DHT22;10906;45.194;5.684;2022-07-29T08:56:50;22.70;77.00
21489;DHT22;10906;45.194;5.684;2022-07-29T08:59:35;22.20;78.50
21489;DHT22;10906;45.194;5.684;2022-07-29T09:02:22;21.70;80.70
21489;DHT22;10906;45.194;5.684;2022-07-29T09:05:07;21.60;82.90
21489;DHT22;10906;45.194;5.684;2022-07-29T09:07:52;21.50;84.00
21489;DHT22;10906;45.194;5.684;2022-07-29T09:10:36;21.30;83.50
21489;DHT22;10906;45.194;5.684;2022-07-29T09:13:21;21.20;85.60
21489;DHT22;10906;45.194;5.684;2022-07-29T09:16:06;21.00;87.10
21489;DHT22;10906;45.194;5.684;2022-07-29T09:18:50;20.90;87.80
21489;DHT22;10906;45.194;5.684;2022-07-29T09:21:40;20.80;89.50
21489;DHT22;10906;45.194;5.684;2022-07-29T09:24:45;20.80;90.50
21489;DHT22;10906;45.194;5.684;2022-07-29T09:27:30;20.70;90.90
21489;DHT22;10906;45.194;5.684;2022-07-29T09:30:15;20.60;91.60
21489;DHT22;10906;45.194;5.684;2022-07-29T09:33:02;20.50;92.40
21489;DHT22;10906;45.194;5.684;2022-07-29T09:36:08;20.40;93.20
21489;DHT22;10906;45.194;5.684;2022-07-29T09:39:00;20.40;94.20
21489;DHT22;10906;45.194;5.684;2022-07-29T09:41:49;20.30;94.30
21489;DHT22;10906;45.194;5.684;2022-07-29T09:44:47;20.30;95.00
21489;DHT22;10906;45.194;5.684;2022-07-29T09:47:46;20.30;95.40
21489;DHT22;10906;45.194;5.684;2022-07-29T09:50:40;20.30;95.80
21489;DHT22;10906;45.194;5.684;2022-07-29T09:53:36;20.30;96.10
21489;DHT22;10906;45.194;5.684;2022-07-29T09:56:38;20.20;96.40
21489;DHT22;10906;45.194;5.684;2022-07-29T09:59:23;20.10;97.80
21489;DHT22;10906;45.194;5.684;2022-07-29T10:02:13;20.00;97.50
21489;DHT22;10906;45.194;5.684;2022-07-29T10:04:59;20.10;98.80
21489;DHT22;10906;45.194;5.684;2022-07-29T10:07:48;20.10;98.80
21489;DHT22;10906;45.194;5.684;2022-07-29T10:10:35;20.10;99.40
21489;DHT22;10906;45.194;5.684;2022-07-29T10:13:19;20.00;99.30
21489;DHT22;10906;45.194;5.684;2022-07-29T10:16:04;19.90;99.90
21489;DHT22;10906;45.194;5.684;2022-07-29T10:18:51;19.90;99.90
21489;DHT22;10906;45.194;5.684;2022-07-29T10:21:35;19.90;99.90
21489;DHT22;10906;45.194;5.684;2022-07-29T10:24:21;19.90;99.90
21489;DHT22;10906;45.194;5.684;2022-07-29T10:27:08;19.90;99.90
21489;DHT22;10906;45.194;5.684;2022-07-29T10:29:54;19.90;99.90
21489;DHT22;10906;45.194;5.684;2022-07-29T10:35:45;19.90;99.90
21489;DHT22;10906;45.194;5.684;2022-07-29T10:38:48;19.90;99.90
21489;DHT22;10906;45.194;5.684;2022-07-29T10:44:21;19.80;99.90
21489;DHT22;10906;45.194;5.684;2022-07-29T10:47:06;19.90;99.90
21489;DHT22;10906;45.194;5.684;2022-07-29T10:50:00;19.80;99.90
21489;DHT22;10906;45.194;5.684;2022-07-29T10:55:39;19.80;99.90
21489;DHT22;10906;45.194;5.684;2022-07-29T10:58:28;19.90;99.90
21489;DHT22;10906;45.194;5.684;2022-07-29T11:01:29;19.80;99.90
21489;DHT22;10906;45.194;5.684;2022-07-29T11:04:14;19.80;99.90
21489;DHT22;10906;45.194;5.684;2022-07-29T11:12:55;19.70;99.90
21489;DHT22;10906;45.194;5.684;2022-07-29T11:15:56;19.70;99.90
21489;DHT22;10906;45.194;5.684;2022-07-29T11:21:56;19.70;99.90
21489;DHT22;10906;45.194;5.684;2022-07-29T11:24:41;19.60;99.90
21489;DHT22;10906;45.194;5.684;2022-07-29T11:27:26;19.60;99.90
21489;DHT22;10906;45.194;5.684;2022-07-29T11:30:15;19.70;99.90
21489;DHT22;10906;45.194;5.684;2022-07-29T11:32:59;19.60;99.90
21489;DHT22;10906;45.194;5.684;2022-07-29T11:36:10;19.70;99.90
21489;DHT22;10906;45.194;5.684;2022-07-29T11:39:27;19.70;99.90
21489;DHT22;10906;45.194;5.684;2022-07-29T11:47:59;19.70;99.90
21489;DHT22;10906;45.194;5.684;2022-07-29T11:50:44;19.70;99.90
21489;DHT22;10906;45.194;5.684;2022-07-29T11:53:29;19.60;99.90
21489;DHT22;10906;45.194;5.684;2022-07-29T11:56:14;19.70;99.90
21489;DHT22;10906;45.194;5.684;2022-07-29T11:59:04;19.70;99.90
21489;DHT22;10906;45.194;5.684;2022-07-29T12:01:56;19.60;99.90
21489;DHT22;10906;45.194;5.684;2022-07-29T12:04:54;19.60;99.90
21489;DHT22;10906;45.194;5.684;2022-07-29T12:07:39;19.60;99.90
21489;DHT22;10906;45.194;5.684;2022-07-29T12:10:30;19.60;99.90
21489;DHT22;10906;45.194;5.684;2022-07-29T12:13:17;19.70;99.90
21489;DHT22;10906;45.194;5.684;2022-07-29T12:16:02;19.80;99.90
21489;DHT22;10906;45.194;5.684;2022-07-29T12:19:00;19.80;99.90
21489;DHT22;10906;45.194;5.684;2022-07-29T12:21:46;19.90;99.90
21489;DHT22;10906;45.194;5.684;2022-07-29T12:24:43;19.90;99.90
21489;DHT22;10906;45.194;5.684;2022-07-29T12:27:28;19.90;99.90
21489;DHT22;10906;45.194;5.684;2022-07-29T12:30:15;19.90;99.90
21489;DHT22;10906;45.194;5.684;2022-07-29T12:36:01;20.30;99.90
21489;DHT22;10906;45.194;5.684;2022-07-29T12:38:45;20.40;99.90
21489;DHT22;10906;45.194;5.684;2022-07-29T12:41:30;20.30;99.90
21489;DHT22;10906;45.194;5.684;2022-07-29T12:44:14;20.30;99.90
21489;DHT22;10906;45.194;5.684;2022-07-29T12:47:02;20.50;99.90
21489;DHT22;10906;45.194;5.684;2022-07-29T12:49:47;20.90;99.90
21489;DHT22;10906;45.194;5.684;2022-07-29T12:52:34;21.00;99.90
21489;DHT22;10906;45.194;5.684;2022-07-29T12:55:38;21.20;99.90
21489;DHT22;10906;45.194;5.684;2022-07-29T13:01:17;21.70;99.90
21489;DHT22;10906;45.194;5.684;2022-07-29T13:04:03;21.90;99.90
21489;DHT22;10906;45.194;5.684;2022-07-29T13:06:48;22.00;99.90
21489;DHT22;10906;45.194;5.684;2022-07-29T13:09:44;22.20;99.90
21489;DHT22;10906;45.194;5.684;2022-07-29T13:12:29;22.60;99.90
21489;DHT22;10906;45.194;5.684;2022-07-29T13:15:14;22.50;99.90
21489;DHT22;10906;45.194;5.684;2022-07-29T13:18:00;22.50;99.90
21489;DHT22;10906;45.194;5.684;2022-07-29T13:20:44;22.40;99.90
21489;DHT22;10906;45.194;5.684;2022-07-29T13:23:29;22.60;99.90
21489;DHT22;10906;45.194;5.684;2022-07-29T13:26:13;23.00;99.90
21489;DHT22;10906;45.194;5.684;2022-07-29T13:29:00;23.00;99.90
21489;DHT22;10906;45.194;5.684;2022-07-29T13:31:45;23.10;99.90
21489;DHT22;10906;45.194;5.684;2022-07-29T13:34:30;23.00;99.90
21489;DHT22;10906;45.194;5.684;2022-07-29T13:37:15;23.20;99.90
21489;DHT22;10906;45.194;5.684;2022-07-29T13:40:02;23.40;99.90
21489;DHT22;10906;45.194;5.684;2022-07-29T13:42:47;23.70;99.90
21489;DHT22;10906;45.194;5.684;2022-07-29T13:45:31;23.90;99.90
21489;DHT22;10906;45.194;5.684;2022-07-29T13:48:15;24.00;99.90
21489;DHT22;10906;45.194;5.684;2022-07-29T13:50:59;24.10;99.90
21489;DHT22;10906;45.194;5.684;2022-07-29T13:53:44;24.00;99.90
21489;DHT22;10906;45.194;5.684;2022-07-29T13:56:28;23.90;99.90
21489;DHT22;10906;45.194;5.684;2022-07-29T13:59:13;24.10;99.90
21489;DHT22;10906;45.194;5.684;2022-07-29T14:01:58;24.30;99.90
21489;DHT22;10906;45.194;5.684;2022-07-29T14:04:42;24.20;99.90
21489;DHT22;10906;45.194;5.684;2022-07-29T14:07:27;24.20;99.90
21489;DHT22;10906;45.194;5.684;2022-07-29T14:10:11;24.00;99.90
21489;DHT22;10906;45.194;5.684;2022-07-29T14:12:56;23.80;99.90
21489;DHT22;10906;45.194;5.684;2022-07-29T14:15:40;23.60;99.90
21489;DHT22;10906;45.194;5.684;2022-07-29T14:18:25;23.60;99.90
21489;DHT22;10906;45.194;5.684;2022-07-29T14:21:09;23.60;99.90
21489;DHT22;10906;45.194;5.684;2022-07-29T14:23:53;23.70;99.90
21489;DHT22;10906;45.194;5.684;2022-07-29T14:26:38;23.90;99.90
21489;DHT22;10906;45.194;5.684;2022-07-29T14:29:22;23.90;99.90
21489;DHT22;10906;45.194;5.684;2022-07-29T14:32:08;23.90;99.90
21489;DHT22;10906;45.194;5.684;2022-07-29T14:34:54;24.00;99.90
21489;DHT22;10906;45.194;5.684;2022-07-29T14:37:38;24.40;99.90
21489;DHT22;10906;45.194;5.684;2022-07-29T14:40:23;24.70;99.90
21489;DHT22;10906;45.194;5.684;2022-07-29T14:43:07;25.10;99.90
21489;DHT22;10906;45.194;5.684;2022-07-29T14:45:52;25.60;99.90
21489;DHT22;10906;45.194;5.684;2022-07-29T14:48:36;26.00;98.70
21489;DHT22;10906;45.194;5.684;2022-07-29T14:51:21;26.20;97.80
21489;DHT22;10906;45.194;5.684;2022-07-29T14:54:06;26.00;98.10
21489;DHT22;10906;45.194;5.684;2022-07-29T14:56:50;25.80;97.70
21489;DHT22;10906;45.194;5.684;2022-07-29T14:59:35;25.90;98.20
21489;DHT22;10906;45.194;5.684;2022-07-29T15:02:19;26.00;97.30
21489;DHT22;10906;45.194;5.684;2022-07-29T15:05:04;26.00;96.90
21489;DHT22;10906;45.194;5.684;2022-07-29T15:07:48;26.30;96.60
21489;DHT22;10906;45.194;5.684;2022-07-29T15:10:33;26.30;96.40
21489;DHT22;10906;45.194;5.684;2022-07-29T15:13:18;26.50;96.20
21489;DHT22;10906;45.194;5.684;2022-07-29T15:16:04;26.70;95.90
21489;DHT22;10906;45.194;5.684;2022-07-29T15:18:49;26.70;95.60
21489;DHT22;10906;45.194;5.684;2022-07-29T15:21:33;26.60;95.00
21489;DHT22;10906;45.194;5.684;2022-07-29T15:24:18;26.50;94.40
21489;DHT22;10906;45.194;5.684;2022-07-29T15:27:03;26.70;94.90
21489;DHT22;10906;45.194;5.684;2022-07-29T15:29:47;27.00;94.70
21489;DHT22;10906;45.194;5.684;2022-07-29T15:32:31;27.40;94.20
21489;DHT22;10906;45.194;5.684;2022-07-29T15:35:16;27.30;92.80
21489;DHT22;10906;45.194;5.684;2022-07-29T15:38:00;27.10;92.50
21489;DHT22;10906;45.194;5.684;2022-07-29T15:40:45;26.70;92.50
21489;DHT22;10906;45.194;5.684;2022-07-29T15:43:30;26.80;92.70
21489;DHT22;10906;45.194;5.684;2022-07-29T15:46:17;27.00;93.00
21489;DHT22;10906;45.194;5.684;2022-07-29T15:49:20;26.80;92.20
21489;DHT22;10906;45.194;5.684;2022-07-29T15:52:07;26.90;92.10
21489;DHT22;10906;45.194;5.684;2022-07-29T15:54:51;26.90;92.20
21489;DHT22;10906;45.194;5.684;2022-07-29T15:57:36;27.00;91.70
21489;DHT22;10906;45.194;5.684;2022-07-29T16:00:20;27.30;91.50
21489;DHT22;10906;45.194;5.684;2022-07-29T16:03:05;27.30;91.50
21489;DHT22;10906;45.194;5.684;2022-07-29T16:05:49;27.60;91.20
21489;DHT22;10906;45.194;5.684;2022-07-29T16:08:34;27.70;91.00
21489;DHT22;10906;45.194;5.684;2022-07-29T16:11:18;27.70;90.30
21489;DHT22;10906;45.194;5.684;2022-07-29T16:14:02;27.80;90.70
21489;DHT22;10906;45.194;5.684;2022-07-29T16:16:47;28.10;89.80
21489;DHT22;10906;45.194;5.684;2022-07-29T16:19:32;28.20;89.00
21489;DHT22;10906;45.194;5.684;2022-07-29T16:22:16;28.00;87.70
21489;DHT22;10906;45.194;5.684;2022-07-29T16:25:01;28.00;87.90
21489;DHT22;10906;45.194;5.684;2022-07-29T16:27:45;28.10;86.00
21489;DHT22;10906;45.194;5.684;2022-07-29T16:30:30;27.90;86.20
21489;DHT22;10906;45.194;5.684;2022-07-29T16:33:14;27.60;86.50
21489;DHT22;10906;45.194;5.684;2022-07-29T16:35:58;27.60;87.50
21489;DHT22;10906;45.194;5.684;2022-07-29T16:38:43;27.70;87.30
21489;DHT22;10906;45.194;5.684;2022-07-29T16:41:27;27.80;87.00
21489;DHT22;10906;45.194;5.684;2022-07-29T16:44:13;28.00;85.80
21489;DHT22;10906;45.194;5.684;2022-07-29T16:46:57;27.90;85.30
21489;DHT22;10906;45.194;5.684;2022-07-29T16:49:41;27.70;85.10
21489;DHT22;10906;45.194;5.684;2022-07-29T16:52:26;27.50;85.30
21489;DHT22;10906;45.194;5.684;2022-07-29T16:55:10;27.20;84.90
21489;DHT22;10906;45.194;5.684;2022-07-29T16:57:55;26.90;85.40
21489;DHT22;10906;45.194;5.684;2022-07-29T17:00:39;26.60;85.50
21489;DHT22;10906;45.194;5.684;2022-07-29T17:03:24;26.40;86.00
21489;DHT22;10906;45.194;5.684;2022-07-29T17:06:08;26.20;86.40
21489;DHT22;10906;45.194;5.684;2022-07-29T17:08:52;26.00;87.00
21489;DHT22;10906;45.194;5.684;2022-07-29T17:11:37;25.90;87.30
21489;DHT22;10906;45.194;5.684;2022-07-29T17:14:24;25.90;87.60
21489;DHT22;10906;45.194;5.684;2022-07-29T17:17:08;25.80;86.80
21489;DHT22;10906;45.194;5.684;2022-07-29T17:19:53;25.70;87.40
21489;DHT22;10906;45.194;5.684;2022-07-29T17:22:37;25.80;88.20
21489;DHT22;10906;45.194;5.684;2022-07-29T17:25:23;25.90;87.40
21489;DHT22;10906;45.194;5.684;2022-07-29T17:28:07;25.80;86.90
21489;DHT22;10906;45.194;5.684;2022-07-29T17:30:52;25.70;87.30
21489;DHT22;10906;45.194;5.684;2022-07-29T17:33:37;25.60;87.00
21489;DHT22;10906;45.194;5.684;2022-07-29T17:36:21;25.40;87.60
21489;DHT22;10906;45.194;5.684;2022-07-29T17:39:09;25.40;88.20
21489;DHT22;10906;45.194;5.684;2022-07-29T17:41:54;25.30;88.80
21489;DHT22;10906;45.194;5.684;2022-07-29T17:44:39;25.30;88.90
21489;DHT22;10906;45.194;5.684;2022-07-29T17:47:24;25.20;88.80
21489;DHT22;10906;45.194;5.684;2022-07-29T17:50:08;25.20;88.80
21489;DHT22;10906;45.194;5.684;2022-07-29T17:52:52;25.10;88.80
21489;DHT22;10906;45.194;5.684;2022-07-29T17:55:36;25.10;90.20
21489;DHT22;10906;45.194;5.684;2022-07-29T17:58:22;25.00;90.70
21489;DHT22;10906;45.194;5.684;2022-07-29T18:01:07;24.90;90.60
21489;DHT22;10906;45.194;5.684;2022-07-29T18:03:51;24.90;90.90
21489;DHT22;10906;45.194;5.684;2022-07-29T18:06:36;24.80;90.30
21489;DHT22;10906;45.194;5.684;2022-07-29T18:09:20;24.80;90.50
21489;DHT22;10906;45.194;5.684;2022-07-29T18:12:05;24.70;90.80
21489;DHT22;10906;45.194;5.684;2022-07-29T18:14:50;24.70;90.60
21489;DHT22;10906;45.194;5.684;2022-07-29T18:17:34;24.60;90.50
21489;DHT22;10906;45.194;5.684;2022-07-29T18:20:19;24.60;91.10
21489;DHT22;10906;45.194;5.684;2022-07-29T18:23:04;24.60;91.30
21489;DHT22;10906;45.194;5.684;2022-07-29T18:25:48;24.50;91.50
21489;DHT22;10906;45.194;5.684;2022-07-29T18:28:33;24.40;92.10
21489;DHT22;10906;45.194;5.684;2022-07-29T18:31:17;24.30;91.90
21489;DHT22;10906;45.194;5.684;2022-07-29T18:34:01;24.20;92.60
21489;DHT22;10906;45.194;5.684;2022-07-29T18:36:45;24.20;92.90
21489;DHT22;10906;45.194;5.684;2022-07-29T18:39:30;24.20;92.90
21489;DHT22;10906;45.194;5.684;2022-07-29T18:42:14;24.20;92.90
21489;DHT22;10906;45.194;5.684;2022-07-29T18:44:58;24.10;92.80
21489;DHT22;10906;45.194;5.684;2022-07-29T18:47:43;24.10;92.60
21489;DHT22;10906;45.194;5.684;2022-07-29T18:50:28;24.10;93.00
21489;DHT22;10906;45.194;5.684;2022-07-29T18:53:13;24.10;93.40
21489;DHT22;10906;45.194;5.684;2022-07-29T18:55:57;24.00;93.40
21489;DHT22;10906;45.194;5.684;2022-07-29T18:58:44;24.00;93.90
21489;DHT22;10906;45.194;5.684;2022-07-29T19:01:28;23.90;94.10
21489;DHT22;10906;45.194;5.684;2022-07-29T19:04:13;23.80;94.10
21489;DHT22;10906;45.194;5.684;2022-07-29T19:06:58;23.70;94.30
21489;DHT22;10906;45.194;5.684;2022-07-29T19:09:46;23.70;94.50
21489;DHT22;10906;45.194;5.684;2022-07-29T19:12:30;23.70;94.30
21489;DHT22;10906;45.194;5.684;2022-07-29T19:15:14;23.70;94.50
21489;DHT22;10906;45.194;5.684;2022-07-29T19:17:59;23.70;94.70
21489;DHT22;10906;45.194;5.684;2022-07-29T19:20:43;23.70;94.40
21489;DHT22;10906;45.194;5.684;2022-07-29T19:23:27;23.70;94.00
21489;DHT22;10906;45.194;5.684;2022-07-29T19:26:12;23.70;94.10
21489;DHT22;10906;45.194;5.684;2022-07-29T19:28:56;23.70;94.10
21489;DHT22;10906;45.194;5.684;2022-07-29T19:31:42;23.70;95.00
21489;DHT22;10906;45.194;5.684;2022-07-29T19:34:26;23.70;95.00
21489;DHT22;10906;45.194;5.684;2022-07-29T19:37:11;23.70;95.00
21489;DHT22;10906;45.194;5.684;2022-07-29T19:39:55;23.70;95.20
21489;DHT22;10906;45.194;5.684;2022-07-29T19:42:40;23.70;95.00
21489;DHT22;10906;45.194;5.684;2022-07-29T19:45:25;23.60;95.20
21489;DHT22;10906;45.194;5.684;2022-07-29T19:48:09;23.60;95.40
21489;DHT22;10906;45.194;5.684;2022-07-29T19:50:53;23.50;95.90
21489;DHT22;10906;45.194;5.684;2022-07-29T19:53:37;23.50;95.90
21489;DHT22;10906;45.194;5.684;2022-07-29T19:56:24;23.40;96.00
21489;DHT22;10906;45.194;5.684;2022-07-29T19:59:10;23.40;96.20
21489;DHT22;10906;45.194;5.684;2022-07-29T20:01:54;23.40;96.60
21489;DHT22;10906;45.194;5.684;2022-07-29T20:04:38;23.30;96.80
21489;DHT22;10906;45.194;5.684;2022-07-29T20:07:23;23.30;97.00
21489;DHT22;10906;45.194;5.684;2022-07-29T20:10:08;23.20;97.40
21489;DHT22;10906;45.194;5.684;2022-07-29T20:12:53;23.10;97.70
21489;DHT22;10906;45.194;5.684;2022-07-29T20:15:37;23.10;97.80
21489;DHT22;10906;45.194;5.684;2022-07-29T20:18:22;23.00;98.20
21489;DHT22;10906;45.194;5.684;2022-07-29T20:21:06;22.80;98.00
21489;DHT22;10906;45.194;5.684;2022-07-29T20:23:51;22.90;98.70
21489;DHT22;10906;45.194;5.684;2022-07-29T20:26:35;22.90;98.70
21489;DHT22;10906;45.194;5.684;2022-07-29T20:29:20;22.80;98.80
21489;DHT22;10906;45.194;5.684;2022-07-29T20:32:04;22.70;98.60
21489;DHT22;10906;45.194;5.684;2022-07-29T20:34:49;22.70;98.20
21489;DHT22;10906;45.194;5.684;2022-07-29T20:37:33;22.70;98.60
21489;DHT22;10906;45.194;5.684;2022-07-29T20:40:17;22.70;98.70
21489;DHT22;10906;45.194;5.684;2022-07-29T20:43:02;22.70;98.40
21489;DHT22;10906;45.194;5.684;2022-07-29T20:45:46;22.70;98.20
21489;DHT22;10906;45.194;5.684;2022-07-29T20:48:31;22.70;97.80
21489;DHT22;10906;45.194;5.684;2022-07-29T20:51:15;22.70;97.60
21489;DHT22;10906;45.194;5.684;2022-07-29T20:53:59;22.60;97.90
21489;DHT22;10906;45.194;5.684;2022-07-29T20:56:44;22.60;98.50
21489;DHT22;10906;45.194;5.684;2022-07-29T20:59:28;22.50;98.10
21489;DHT22;10906;45.194;5.684;2022-07-29T21:02:13;22.50;98.70
21489;DHT22;10906;45.194;5.684;2022-07-29T21:04:57;22.50;99.00
21489;DHT22;10906;45.194;5.684;2022-07-29T21:07:42;22.30;98.50
21489;DHT22;10906;45.194;5.684;2022-07-29T21:10:27;22.30;98.90
21489;DHT22;10906;45.194;5.684;2022-07-29T21:13:12;22.30;98.90
21489;DHT22;10906;45.194;5.684;2022-07-29T21:15:57;22.20;98.30
21489;DHT22;10906;45.194;5.684;2022-07-29T21:18:45;22.20;98.80
21489;DHT22;10906;45.194;5.684;2022-07-29T21:21:29;22.20;99.30
21489;DHT22;10906;45.194;5.684;2022-07-29T21:24:13;22.20;98.90
21489;DHT22;10906;45.194;5.684;2022-07-29T21:26:58;22.10;99.10
21489;DHT22;10906;45.194;5.684;2022-07-29T21:30:01;22.10;99.20
21489;DHT22;10906;45.194;5.684;2022-07-29T21:32:45;22.10;99.10
21489;DHT22;10906;45.194;5.684;2022-07-29T21:35:30;22.10;99.30
21489;DHT22;10906;45.194;5.684;2022-07-29T21:38:15;22.10;99.40
21489;DHT22;10906;45.194;5.684;2022-07-29T21:41:00;22.00;99.50
21489;DHT22;10906;45.194;5.684;2022-07-29T21:43:45;22.00;99.60
21489;DHT22;10906;45.194;5.684;2022-07-29T21:46:29;22.00;99.70
21489;DHT22;10906;45.194;5.684;2022-07-29T21:49:13;22.00;99.70
21489;DHT22;10906;45.194;5.684;2022-07-29T21:51:58;22.00;99.90
21489;DHT22;10906;45.194;5.684;2022-07-29T21:54:43;21.90;99.80
21489;DHT22;10906;45.194;5.684;2022-07-29T21:57:27;21.90;99.80
